Airfield :
LOGIN :

Register | Disclaimer

   EN    FR    IT 

 










Legend :    VFR   Marginal VFR   IFR   Intensive IFR   Very Intensive IFR
Visi :
Ceiling :
>= 8 km
>= 3000ft
5 to 8 km
1000 to 3000 ft
1500m to 5 km
500 to 1000 ft
800 to 1500m
200 to 500 ft
< 800m
< 200 ft
Symbols :   Thunderstorms  Fog  Heavy snow  Heavy precipitations  Wind > 20 kt
SIGMETs :     Misc.  Thunderstorms  Icing  Turbulence  Mountain Waves  Volcanic Ashes







- Airport Elevation : 17 ft
- IATA code : CPH


EKCH - København - Kastrup (Copenhagen)

CURRENT METAR :
  • 231450Z 08014KT 9999 FEW014 BKN017 10/08 Q1018 TEMPO BKN012

EXPIRED METARs :
  • 231420Z 08014KT 050V120 9999 FEW014 BKN017 10/08 Q1017 TEMPO BKN012
  • 231350Z 08014KT 050V110 9999 SCT012 BKN017 10/08 Q1017 TEMPO BKN012
  • 231320Z 09017KT 9999 SCT012 BKN055 10/08 Q1016 TEMPO BKN012
  • 231250Z 08014KT 9999 SCT012 BKN050 11/09 Q1016 TEMPO BKN012
  • 231220Z 08015KT 9999 -RA SCT014 BKN046 11/09 Q1016 TEMPO BKN012

TAF TAF EKCH
Valid from the 23 at 12:00 until the 24 at 12:00 UTC


231052Z 2312/2412 09012KT 9999 FEW008 BKN030
TEMPO 2312/2324 BKN008
TEMPO 2400/2412 BKN012
No reported NOTAMs for that airfield.



MET'MAP, your aeronautical weather chart ! - Copyright ORBIFLY December 2007 - Disclaimer

ORBIFLY MET'MAP TEAM :

Programming & Development : Alexandra Zaïnal
Concept & Development : Baudouin d'Aumeries
Co-Development & Prog : Marc-Olivier Méhu
Technical & hardware support : Manuel Goepfert

Contact : metmap@orbifly.com




SOURCES & CREDITS :

   NOAA